sensor_id;sensor_type;location;lat;lon;timestamp;P1;durP1;ratioP1;P2;durP2;ratioP2
78167;SDS011;67410;42.698;23.378;2024-02-26T00:00:42;19.08;;;9.75;;
78167;SDS011;67410;42.698;23.378;2024-02-26T00:03:08;10.52;;;7.03;;
78167;SDS011;67410;42.698;23.378;2024-02-26T00:05:34;18.40;;;9.18;;
78167;SDS011;67410;42.698;23.378;2024-02-26T00:08:01;16.65;;;8.55;;
78167;SDS011;67410;42.698;23.378;2024-02-26T00:10:27;19.60;;;11.18;;
78167;SDS011;67410;42.698;23.378;2024-02-26T00:12:53;11.80;;;7.20;;
78167;SDS011;67410;42.698;23.378;2024-02-26T00:15:19;19.30;;;7.53;;
78167;SDS011;67410;42.698;23.378;2024-02-26T00:17:45;18.60;;;6.88;;
78167;SDS011;67410;42.698;23.378;2024-02-26T00:20:11;14.35;;;7.43;;
78167;SDS011;67410;42.698;23.378;2024-02-26T00:22:39;18.20;;;9.00;;
78167;SDS011;67410;42.698;23.378;2024-02-26T00:25:05;10.00;;;5.30;;
78167;SDS011;67410;42.698;23.378;2024-02-26T00:27:31;18.77;;;9.10;;
78167;SDS011;67410;42.698;23.378;2024-02-26T00:29:58;38.45;;;25.60;;
78167;SDS011;67410;42.698;23.378;2024-02-26T00:32:24;44.88;;;24.65;;
78167;SDS011;67410;42.698;23.378;2024-02-26T00:34:50;41.92;;;20.60;;
78167;SDS011;67410;42.698;23.378;2024-02-26T00:37:16;13.38;;;9.73;;
78167;SDS011;67410;42.698;23.378;2024-02-26T00:39:42;13.38;;;8.75;;
78167;SDS011;67410;42.698;23.378;2024-02-26T00:42:09;24.05;;;12.07;;
78167;SDS011;67410;42.698;23.378;2024-02-26T00:44:35;32.00;;;13.80;;
78167;SDS011;67410;42.698;23.378;2024-02-26T00:47:01;13.52;;;11.25;;
78167;SDS011;67410;42.698;23.378;2024-02-26T00:49:27;31.02;;;6.80;;
78167;SDS011;67410;42.698;23.378;2024-02-26T00:51:54;17.83;;;8.40;;
78167;SDS011;67410;42.698;23.378;2024-02-26T00:54:20;17.05;;;7.05;;
78167;SDS011;67410;42.698;23.378;2024-02-26T00:56:46;11.18;;;7.43;;
78167;SDS011;67410;42.698;23.378;2024-02-26T00:59:12;12.25;;;5.43;;
78167;SDS011;67410;42.698;23.378;2024-02-26T01:01:38;7.25;;;6.55;;
78167;SDS011;67410;42.698;23.378;2024-02-26T01:04:04;6.40;;;5.00;;
78167;SDS011;67410;42.698;23.378;2024-02-26T01:06:30;15.25;;;8.05;;
78167;SDS011;67410;42.698;23.378;2024-02-26T01:08:56;11.45;;;4.93;;
78167;SDS011;67410;42.698;23.378;2024-02-26T01:11:22;17.50;;;5.95;;
78167;SDS011;67410;42.698;23.378;2024-02-26T01:13:48;7.68;;;6.68;;
78167;SDS011;67410;42.698;23.378;2024-02-26T01:16:19;8.77;;;4.78;;
78167;SDS011;67410;42.698;23.378;2024-02-26T01:18:45;8.10;;;5.70;;
78167;SDS011;67410;42.698;23.378;2024-02-26T01:21:11;5.22;;;4.30;;
78167;SDS011;67410;42.698;23.378;2024-02-26T01:23:37;7.50;;;5.07;;
78167;SDS011;67410;42.698;23.378;2024-02-26T01:26:03;3.58;;;3.25;;
78167;SDS011;67410;42.698;23.378;2024-02-26T01:28:30;10.98;;;6.45;;
78167;SDS011;67410;42.698;23.378;2024-02-26T01:30:56;9.23;;;3.72;;
78167;SDS011;67410;42.698;23.378;2024-02-26T01:33:22;6.32;;;5.13;;
78167;SDS011;67410;42.698;23.378;2024-02-26T01:35:49;14.30;;;6.22;;
78167;SDS011;67410;42.698;23.378;2024-02-26T01:38:16;15.48;;;7.30;;
78167;SDS011;67410;42.698;23.378;2024-02-26T01:40:42;11.15;;;6.15;;
78167;SDS011;67410;42.698;23.378;2024-02-26T01:43:08;18.25;;;9.48;;
78167;SDS011;67410;42.698;23.378;2024-02-26T01:45:34;13.60;;;6.78;;
78167;SDS011;67410;42.698;23.378;2024-02-26T01:48:00;21.13;;;7.25;;
78167;SDS011;67410;42.698;23.378;2024-02-26T01:50:26;11.18;;;6.10;;
78167;SDS011;67410;42.698;23.378;2024-02-26T01:52:53;18.75;;;6.88;;
78167;SDS011;67410;42.698;23.378;2024-02-26T01:55:20;13.40;;;8.18;;
78167;SDS011;67410;42.698;23.378;2024-02-26T01:57:49;10.65;;;5.68;;
78167;SDS011;67410;42.698;23.378;2024-02-26T02:02:56;16.70;;;6.53;;
78167;SDS011;67410;42.698;23.378;2024-02-26T02:05:23;6.32;;;3.60;;
78167;SDS011;67410;42.698;23.378;2024-02-26T02:07:50;10.77;;;6.38;;
78167;SDS011;67410;42.698;23.378;2024-02-26T02:10:17;17.88;;;9.77;;
78167;SDS011;67410;42.698;23.378;2024-02-26T02:12:49;13.93;;;6.32;;
78167;SDS011;67410;42.698;23.378;2024-02-26T02:15:16;21.05;;;6.13;;
78167;SDS011;67410;42.698;23.378;2024-02-26T02:17:42;16.27;;;8.23;;
78167;SDS011;67410;42.698;23.378;2024-02-26T02:20:09;11.65;;;7.63;;
78167;SDS011;67410;42.698;23.378;2024-02-26T02:22:40;24.80;;;8.27;;
78167;SDS011;67410;42.698;23.378;2024-02-26T02:25:06;16.02;;;9.73;;
78167;SDS011;67410;42.698;23.378;2024-02-26T02:27:34;32.05;;;9.18;;
78167;SDS011;67410;42.698;23.378;2024-02-26T02:30:00;13.30;;;7.20;;
78167;SDS011;67410;42.698;23.378;2024-02-26T02:32:27;25.33;;;12.07;;
78167;SDS011;67410;42.698;23.378;2024-02-26T02:34:55;19.33;;;8.40;;
78167;SDS011;67410;42.698;23.378;2024-02-26T02:37:22;15.02;;;8.70;;
78167;SDS011;67410;42.698;23.378;2024-02-26T02:39:48;16.40;;;8.30;;
78167;SDS011;67410;42.698;23.378;2024-02-26T02:42:14;12.02;;;7.63;;
78167;SDS011;67410;42.698;23.378;2024-02-26T02:44:40;17.00;;;9.48;;
78167;SDS011;67410;42.698;23.378;2024-02-26T02:47:07;21.92;;;7.03;;
78167;SDS011;67410;42.698;23.378;2024-02-26T02:49:33;19.08;;;6.85;;
78167;SDS011;67410;42.698;23.378;2024-02-26T02:51:59;12.38;;;6.43;;
78167;SDS011;67410;42.698;23.378;2024-02-26T02:54:25;9.35;;;6.28;;
78167;SDS011;67410;42.698;23.378;2024-02-26T02:56:51;18.58;;;8.43;;
78167;SDS011;67410;42.698;23.378;2024-02-26T02:59:17;9.85;;;7.53;;
78167;SDS011;67410;42.698;23.378;2024-02-26T03:01:43;13.73;;;8.38;;
78167;SDS011;67410;42.698;23.378;2024-02-26T03:04:09;14.48;;;6.65;;
78167;SDS011;67410;42.698;23.378;2024-02-26T03:06:35;16.90;;;8.70;;
78167;SDS011;67410;42.698;23.378;2024-02-26T03:09:01;11.38;;;8.57;;
78167;SDS011;67410;42.698;23.378;2024-02-26T03:11:28;16.75;;;10.00;;
78167;SDS011;67410;42.698;23.378;2024-02-26T03:13:54;14.07;;;7.43;;
78167;SDS011;67410;42.698;23.378;2024-02-26T03:16:20;15.38;;;8.95;;
78167;SDS011;67410;42.698;23.378;2024-02-26T03:18:46;17.27;;;7.95;;
78167;SDS011;67410;42.698;23.378;2024-02-26T03:21:13;7.55;;;5.80;;
78167;SDS011;67410;42.698;23.378;2024-02-26T03:23:39;8.65;;;5.53;;
78167;SDS011;67410;42.698;23.378;2024-02-26T03:26:05;9.32;;;7.45;;
78167;SDS011;67410;42.698;23.378;2024-02-26T03:28:32;16.38;;;7.13;;
78167;SDS011;67410;42.698;23.378;2024-02-26T03:30:59;12.93;;;7.32;;
78167;SDS011;67410;42.698;23.378;2024-02-26T03:33:26;12.50;;;5.63;;
78167;SDS011;67410;42.698;23.378;2024-02-26T03:35:52;16.67;;;7.25;;
78167;SDS011;67410;42.698;23.378;2024-02-26T03:38:18;14.18;;;6.95;;
78167;SDS011;67410;42.698;23.378;2024-02-26T03:40:46;7.88;;;5.40;;
78167;SDS011;67410;42.698;23.378;2024-02-26T03:43:12;12.88;;;7.47;;
78167;SDS011;67410;42.698;23.378;2024-02-26T03:45:39;12.07;;;7.32;;
78167;SDS011;67410;42.698;23.378;2024-02-26T03:48:05;7.82;;;5.32;;
78167;SDS011;67410;42.698;23.378;2024-02-26T03:50:31;11.73;;;8.18;;
78167;SDS011;67410;42.698;23.378;2024-02-26T03:52:58;6.93;;;4.90;;
78167;SDS011;67410;42.698;23.378;2024-02-26T03:55:24;9.07;;;6.25;;
78167;SDS011;67410;42.698;23.378;2024-02-26T03:57:54;11.93;;;4.93;;
78167;SDS011;67410;42.698;23.378;2024-02-26T04:00:20;8.82;;;5.60;;
78167;SDS011;67410;42.698;23.378;2024-02-26T04:02:49;10.10;;;5.30;;
78167;SDS011;67410;42.698;23.378;2024-02-26T04:05:15;7.22;;;4.93;;
78167;SDS011;67410;42.698;23.378;2024-02-26T04:07:41;16.20;;;6.43;;
78167;SDS011;67410;42.698;23.378;2024-02-26T04:10:10;6.00;;;3.75;;
78167;SDS011;67410;42.698;23.378;2024-02-26T04:15:10;2.88;;;2.65;;
78167;SDS011;67410;42.698;23.378;2024-02-26T04:17:36;3.65;;;3.33;;
78167;SDS011;67410;42.698;23.378;2024-02-26T04:20:04;5.20;;;3.95;;
78167;SDS011;67410;42.698;23.378;2024-02-26T04:22:32;3.00;;;2.75;;
78167;SDS011;67410;42.698;23.378;2024-02-26T04:24:58;5.57;;;3.53;;
78167;SDS011;67410;42.698;23.378;2024-02-26T04:27:25;6.78;;;4.28;;
78167;SDS011;67410;42.698;23.378;2024-02-26T04:29:51;14.40;;;6.65;;
78167;SDS011;67410;42.698;23.378;2024-02-26T04:32:18;12.48;;;6.28;;
78167;SDS011;67410;42.698;23.378;2024-02-26T04:34:44;11.73;;;7.03;;
78167;SDS011;67410;42.698;23.378;2024-02-26T04:37:10;13.27;;;5.13;;
78167;SDS011;67410;42.698;23.378;2024-02-26T04:39:36;6.60;;;4.30;;
78167;SDS011;67410;42.698;23.378;2024-02-26T04:42:02;7.07;;;4.68;;
78167;SDS011;67410;42.698;23.378;2024-02-26T04:44:29;6.72;;;5.32;;
78167;SDS011;67410;42.698;23.378;2024-02-26T04:46:55;7.05;;;4.38;;
78167;SDS011;67410;42.698;23.378;2024-02-26T04:49:22;7.85;;;5.05;;
78167;SDS011;67410;42.698;23.378;2024-02-26T04:51:48;5.78;;;4.47;;
78167;SDS011;67410;42.698;23.378;2024-02-26T04:54:14;3.97;;;3.08;;
78167;SDS011;67410;42.698;23.378;2024-02-26T04:56:41;9.93;;;5.07;;
78167;SDS011;67410;42.698;23.378;2024-02-26T04:59:07;3.35;;;2.70;;
78167;SDS011;67410;42.698;23.378;2024-02-26T05:01:33;7.82;;;5.25;;
78167;SDS011;67410;42.698;23.378;2024-02-26T05:03:59;5.22;;;3.50;;
78167;SDS011;67410;42.698;23.378;2024-02-26T05:06:25;5.68;;;3.60;;
78167;SDS011;67410;42.698;23.378;2024-02-26T05:08:51;3.80;;;3.38;;
78167;SDS011;67410;42.698;23.378;2024-02-26T05:11:17;14.93;;;2.92;;
78167;SDS011;67410;42.698;23.378;2024-02-26T05:13:44;13.02;;;4.47;;
78167;SDS011;67410;42.698;23.378;2024-02-26T05:16:11;7.45;;;3.88;;
78167;SDS011;67410;42.698;23.378;2024-02-26T05:18:37;3.00;;;2.10;;
78167;SDS011;67410;42.698;23.378;2024-02-26T05:21:03;6.32;;;3.58;;
78167;SDS011;67410;42.698;23.378;2024-02-26T05:23:29;4.03;;;3.47;;
78167;SDS011;67410;42.698;23.378;2024-02-26T05:25:55;7.55;;;4.35;;
78167;SDS011;67410;42.698;23.378;2024-02-26T05:28:21;22.40;;;5.25;;
78167;SDS011;67410;42.698;23.378;2024-02-26T05:30:48;16.73;;;6.63;;
78167;SDS011;67410;42.698;23.378;2024-02-26T05:33:15;8.32;;;4.40;;
78167;SDS011;67410;42.698;23.378;2024-02-26T05:35:41;10.38;;;7.47;;
78167;SDS011;67410;42.698;23.378;2024-02-26T05:38:07;5.97;;;5.10;;
78167;SDS011;67410;42.698;23.378;2024-02-26T05:40:33;10.07;;;7.22;;
78167;SDS011;67410;42.698;23.378;2024-02-26T05:43:00;11.43;;;7.53;;
78167;SDS011;67410;42.698;23.378;2024-02-26T05:45:27;10.52;;;6.03;;
78167;SDS011;67410;42.698;23.378;2024-02-26T05:47:53;11.80;;;7.45;;
78167;SDS011;67410;42.698;23.378;2024-02-26T05:50:20;8.05;;;6.05;;
78167;SDS011;67410;42.698;23.378;2024-02-26T05:52:47;9.68;;;5.55;;
78167;SDS011;67410;42.698;23.378;2024-02-26T05:55:14;7.55;;;5.28;;
78167;SDS011;67410;42.698;23.378;2024-02-26T05:57:43;6.70;;;4.05;;
78167;SDS011;67410;42.698;23.378;2024-02-26T06:00:09;12.18;;;5.22;;
78167;SDS011;67410;42.698;23.378;2024-02-26T06:02:37;8.00;;;4.63;;
78167;SDS011;67410;42.698;23.378;2024-02-26T06:05:04;4.72;;;4.00;;
78167;SDS011;67410;42.698;23.378;2024-02-26T06:07:30;20.33;;;8.02;;
78167;SDS011;67410;42.698;23.378;2024-02-26T06:09:56;9.68;;;7.18;;
78167;SDS011;67410;42.698;23.378;2024-02-26T06:12:22;13.70;;;5.70;;
78167;SDS011;67410;42.698;23.378;2024-02-26T06:14:49;26.70;;;10.07;;
78167;SDS011;67410;42.698;23.378;2024-02-26T06:17:15;17.15;;;7.68;;
78167;SDS011;67410;42.698;23.378;2024-02-26T06:19:42;11.65;;;7.05;;
78167;SDS011;67410;42.698;23.378;2024-02-26T06:22:08;3.97;;;2.88;;
78167;SDS011;67410;42.698;23.378;2024-02-26T06:24:34;9.88;;;4.43;;
78167;SDS011;67410;42.698;23.378;2024-02-26T06:27:00;6.57;;;4.57;;
78167;SDS011;67410;42.698;23.378;2024-02-26T06:29:26;11.70;;;5.18;;
78167;SDS011;67410;42.698;23.378;2024-02-26T06:31:52;5.50;;;4.15;;
78167;SDS011;67410;42.698;23.378;2024-02-26T06:34:18;15.50;;;7.45;;
78167;SDS011;67410;42.698;23.378;2024-02-26T06:36:44;8.77;;;7.32;;
78167;SDS011;67410;42.698;23.378;2024-02-26T06:39:11;9.30;;;6.43;;
78167;SDS011;67410;42.698;23.378;2024-02-26T06:41:38;12.95;;;7.68;;
78167;SDS011;67410;42.698;23.378;2024-02-26T06:44:05;6.60;;;4.75;;
78167;SDS011;67410;42.698;23.378;2024-02-26T06:46:31;11.90;;;6.00;;
78167;SDS011;67410;42.698;23.378;2024-02-26T06:48:58;12.52;;;7.80;;
78167;SDS011;67410;42.698;23.378;2024-02-26T06:51:25;16.33;;;9.05;;
78167;SDS011;67410;42.698;23.378;2024-02-26T06:53:53;17.13;;;9.55;;
78167;SDS011;67410;42.698;23.378;2024-02-26T06:56:19;16.60;;;7.93;;
78167;SDS011;67410;42.698;23.378;2024-02-26T06:58:46;7.20;;;4.65;;
78167;SDS011;67410;42.698;23.378;2024-02-26T07:01:12;7.65;;;5.30;;
78167;SDS011;67410;42.698;23.378;2024-02-26T07:03:41;9.23;;;4.93;;
78167;SDS011;67410;42.698;23.378;2024-02-26T07:06:08;13.52;;;6.20;;
78167;SDS011;67410;42.698;23.378;2024-02-26T07:08:34;13.50;;;6.45;;
78167;SDS011;67410;42.698;23.378;2024-02-26T07:11:00;8.32;;;5.57;;
78167;SDS011;67410;42.698;23.378;2024-02-26T07:13:26;17.90;;;6.38;;
78167;SDS011;67410;42.698;23.378;2024-02-26T07:15:52;12.95;;;6.45;;
78167;SDS011;67410;42.698;23.378;2024-02-26T07:18:18;12.38;;;6.65;;
78167;SDS011;67410;42.698;23.378;2024-02-26T07:20:45;10.07;;;6.10;;
78167;SDS011;67410;42.698;23.378;2024-02-26T07:23:11;11.18;;;6.25;;
78167;SDS011;67410;42.698;23.378;2024-02-26T07:25:38;28.55;;;9.10;;
78167;SDS011;67410;42.698;23.378;2024-02-26T07:28:10;10.95;;;5.43;;
78167;SDS011;67410;42.698;23.378;2024-02-26T07:30:37;11.30;;;8.68;;
78167;SDS011;67410;42.698;23.378;2024-02-26T07:33:03;9.40;;;6.05;;
78167;SDS011;67410;42.698;23.378;2024-02-26T07:35:30;15.73;;;7.47;;
78167;SDS011;67410;42.698;23.378;2024-02-26T07:37:58;7.25;;;5.32;;
78167;SDS011;67410;42.698;23.378;2024-02-26T07:40:24;7.50;;;4.03;;
78167;SDS011;67410;42.698;23.378;2024-02-26T07:42:50;8.90;;;5.35;;
78167;SDS011;67410;42.698;23.378;2024-02-26T07:45:16;8.23;;;5.40;;
78167;SDS011;67410;42.698;23.378;2024-02-26T07:47:46;16.50;;;6.13;;
78167;SDS011;67410;42.698;23.378;2024-02-26T07:50:12;18.98;;;7.75;;
78167;SDS011;67410;42.698;23.378;2024-02-26T07:52:39;12.05;;;7.70;;
78167;SDS011;67410;42.698;23.378;2024-02-26T07:55:05;13.13;;;7.05;;
78167;SDS011;67410;42.698;23.378;2024-02-26T07:57:33;18.73;;;7.47;;
78167;SDS011;67410;42.698;23.378;2024-02-26T08:00:02;8.63;;;4.72;;
78167;SDS011;67410;42.698;23.378;2024-02-26T08:02:29;6.32;;;5.32;;
78167;SDS011;67410;42.698;23.378;2024-02-26T08:04:55;11.02;;;6.82;;
78167;SDS011;67410;42.698;23.378;2024-02-26T08:07:21;7.95;;;6.57;;
78167;SDS011;67410;42.698;23.378;2024-02-26T08:09:48;10.98;;;6.07;;
78167;SDS011;67410;42.698;23.378;2024-02-26T08:12:14;12.07;;;6.15;;
78167;SDS011;67410;42.698;23.378;2024-02-26T08:14:40;7.10;;;4.57;;
78167;SDS011;67410;42.698;23.378;2024-02-26T08:17:06;11.05;;;4.93;;
78167;SDS011;67410;42.698;23.378;2024-02-26T08:19:34;8.57;;;5.45;;
78167;SDS011;67410;42.698;23.378;2024-02-26T08:22:01;12.02;;;5.63;;
78167;SDS011;67410;42.698;23.378;2024-02-26T08:24:28;8.65;;;5.10;;
78167;SDS011;67410;42.698;23.378;2024-02-26T08:26:54;4.65;;;3.92;;
78167;SDS011;67410;42.698;23.378;2024-02-26T08:29:20;10.57;;;3.92;;
78167;SDS011;67410;42.698;23.378;2024-02-26T08:31:46;10.45;;;6.90;;
78167;SDS011;67410;42.698;23.378;2024-02-26T08:34:12;10.45;;;5.65;;
78167;SDS011;67410;42.698;23.378;2024-02-26T08:36:38;10.32;;;5.65;;
78167;SDS011;67410;42.698;23.378;2024-02-26T08:39:04;8.88;;;4.47;;
78167;SDS011;67410;42.698;23.378;2024-02-26T08:41:30;7.80;;;3.60;;
78167;SDS011;67410;42.698;23.378;2024-02-26T08:43:57;12.43;;;5.00;;
78167;SDS011;67410;42.698;23.378;2024-02-26T08:46:23;9.10;;;5.15;;
78167;SDS011;67410;42.698;23.378;2024-02-26T08:48:49;5.63;;;3.65;;
78167;SDS011;67410;42.698;23.378;2024-02-26T08:51:16;8.27;;;4.43;;
78167;SDS011;67410;42.698;23.378;2024-02-26T08:53:43;8.13;;;4.97;;
78167;SDS011;67410;42.698;23.378;2024-02-26T08:56:09;5.68;;;4.53;;
78167;SDS011;67410;42.698;23.378;2024-02-26T08:58:43;9.73;;;4.38;;
78167;SDS011;67410;42.698;23.378;2024-02-26T09:01:09;4.78;;;3.75;;
78167;SDS011;67410;42.698;23.378;2024-02-26T09:03:35;6.30;;;3.90;;
78167;SDS011;67410;42.698;23.378;2024-02-26T09:06:01;7.15;;;5.40;;
78167;SDS011;67410;42.698;23.378;2024-02-26T09:08:27;5.45;;;4.40;;
78167;SDS011;67410;42.698;23.378;2024-02-26T09:10:54;9.50;;;4.07;;
78167;SDS011;67410;42.698;23.378;2024-02-26T09:13:20;6.82;;;4.35;;
78167;SDS011;67410;42.698;23.378;2024-02-26T09:15:46;6.75;;;4.15;;
78167;SDS011;67410;42.698;23.378;2024-02-26T09:18:12;4.72;;;3.47;;
78167;SDS011;67410;42.698;23.378;2024-02-26T09:20:38;7.78;;;3.38;;
78167;SDS011;67410;42.698;23.378;2024-02-26T09:23:04;7.38;;;4.45;;
78167;SDS011;67410;42.698;23.378;2024-02-26T09:25:31;8.20;;;6.60;;
78167;SDS011;67410;42.698;23.378;2024-02-26T09:27:59;4.07;;;2.60;;
78167;SDS011;67410;42.698;23.378;2024-02-26T09:30:28;3.08;;;2.38;;
78167;SDS011;67410;42.698;23.378;2024-02-26T09:32:54;3.35;;;2.88;;
78167;SDS011;67410;42.698;23.378;2024-02-26T09:35:20;2.88;;;1.83;;
78167;SDS011;67410;42.698;23.378;2024-02-26T09:37:47;4.03;;;3.17;;
78167;SDS011;67410;42.698;23.378;2024-02-26T09:40:14;1.90;;;1.55;;
78167;SDS011;67410;42.698;23.378;2024-02-26T09:42:42;7.97;;;5.22;;
78167;SDS011;67410;42.698;23.378;2024-02-26T09:45:14;12.30;;;4.95;;
78167;SDS011;67410;42.698;23.378;2024-02-26T09:47:43;2.28;;;1.73;;
78167;SDS011;67410;42.698;23.378;2024-02-26T09:50:11;2.63;;;1.95;;
78167;SDS011;67410;42.698;23.378;2024-02-26T09:52:40;2.00;;;1.45;;
78167;SDS011;67410;42.698;23.378;2024-02-26T09:55:08;5.25;;;1.92;;
78167;SDS011;67410;42.698;23.378;2024-02-26T09:57:37;3.30;;;2.28;;
78167;SDS011;67410;42.698;23.378;2024-02-26T10:00:06;0.65;;;0.65;;
78167;SDS011;67410;42.698;23.378;2024-02-26T10:02:35;5.47;;;2.83;;
78167;SDS011;67410;42.698;23.378;2024-02-26T10:05:07;4.88;;;2.50;;
78167;SDS011;67410;42.698;23.378;2024-02-26T10:07:38;3.15;;;2.35;;
78167;SDS011;67410;42.698;23.378;2024-02-26T10:10:04;5.32;;;2.15;;
78167;SDS011;67410;42.698;23.378;2024-02-26T10:12:31;1.77;;;1.58;;
78167;SDS011;67410;42.698;23.378;2024-02-26T10:14:58;1.40;;;1.13;;
78167;SDS011;67410;42.698;23.378;2024-02-26T10:17:24;2.53;;;2.13;;
78167;SDS011;67410;42.698;23.378;2024-02-26T10:19:53;3.97;;;1.15;;
78167;SDS011;67410;42.698;23.378;2024-02-26T10:22:22;1.90;;;1.70;;
78167;SDS011;67410;42.698;23.378;2024-02-26T10:24:48;5.55;;;3.13;;
78167;SDS011;67410;42.698;23.378;2024-02-26T10:27:14;2.13;;;0.88;;
78167;SDS011;67410;42.698;23.378;2024-02-26T10:29:41;1.25;;;1.08;;
78167;SDS011;67410;42.698;23.378;2024-02-26T10:32:09;3.45;;;1.70;;
78167;SDS011;67410;42.698;23.378;2024-02-26T10:34:36;3.78;;;2.10;;
78167;SDS011;67410;42.698;23.378;2024-02-26T10:37:04;2.33;;;1.88;;
78167;SDS011;67410;42.698;23.378;2024-02-26T10:39:31;5.82;;;2.13;;
78167;SDS011;67410;42.698;23.378;2024-02-26T10:41:59;2.47;;;2.05;;
78167;SDS011;67410;42.698;23.378;2024-02-26T10:44:32;1.65;;;1.23;;
78167;SDS011;67410;42.698;23.378;2024-02-26T10:47:05;3.65;;;2.05;;
78167;SDS011;67410;42.698;23.378;2024-02-26T10:49:33;1.35;;;1.13;;
78167;SDS011;67410;42.698;23.378;2024-02-26T10:52:01;2.38;;;1.58;;
78167;SDS011;67410;42.698;23.378;2024-02-26T10:54:28;3.83;;;2.28;;
78167;SDS011;67410;42.698;23.378;2024-02-26T10:56:56;1.50;;;0.82;;
78167;SDS011;67410;42.698;23.378;2024-02-26T10:59:24;2.00;;;1.80;;
78167;SDS011;67410;42.698;23.378;2024-02-26T11:01:51;5.95;;;3.15;;
78167;SDS011;67410;42.698;23.378;2024-02-26T11:04:17;6.45;;;2.70;;
78167;SDS011;67410;42.698;23.378;2024-02-26T11:06:44;2.20;;;1.90;;
78167;SDS011;67410;42.698;23.378;2024-02-26T11:09:12;5.50;;;2.10;;
78167;SDS011;67410;42.698;23.378;2024-02-26T11:11:38;4.70;;;2.00;;
78167;SDS011;67410;42.698;23.378;2024-02-26T11:14:06;2.75;;;2.05;;
78167;SDS011;67410;42.698;23.378;2024-02-26T11:16:35;2.83;;;2.30;;
78167;SDS011;67410;42.698;23.378;2024-02-26T11:19:03;0.30;;;0.17;;
78167;SDS011;67410;42.698;23.378;2024-02-26T11:21:32;4.88;;;0.98;;
78167;SDS011;67410;42.698;23.378;2024-02-26T11:24:13;1.83;;;1.55;;
78167;SDS011;67410;42.698;23.378;2024-02-26T11:26:49;1.40;;;0.93;;
78167;SDS011;67410;42.698;23.378;2024-02-26T11:32:19;6.57;;;2.35;;
78167;SDS011;67410;42.698;23.378;2024-02-26T11:34:46;3.30;;;2.47;;
78167;SDS011;67410;42.698;23.378;2024-02-26T11:37:14;3.97;;;1.38;;
78167;SDS011;67410;42.698;23.378;2024-02-26T11:39:48;2.83;;;1.88;;
78167;SDS011;67410;42.698;23.378;2024-02-26T11:42:23;2.80;;;1.58;;
78167;SDS011;67410;42.698;23.378;2024-02-26T11:44:51;7.25;;;1.45;;
78167;SDS011;67410;42.698;23.378;2024-02-26T11:47:21;2.15;;;1.70;;
78167;SDS011;67410;42.698;23.378;2024-02-26T11:49:48;4.68;;;1.58;;
78167;SDS011;67410;42.698;23.378;2024-02-26T11:52:15;1.98;;;0.88;;
78167;SDS011;67410;42.698;23.378;2024-02-26T11:54:47;0.77;;;0.50;;
78167;SDS011;67410;42.698;23.378;2024-02-26T11:57:38;4.45;;;2.45;;
78167;SDS011;67410;42.698;23.378;2024-02-26T12:02:51;5.35;;;2.53;;
78167;SDS011;67410;42.698;23.378;2024-02-26T12:05:24;1.10;;;1.00;;
78167;SDS011;67410;42.698;23.378;2024-02-26T12:08:10;0.68;;;0.60;;
78167;SDS011;67410;42.698;23.378;2024-02-26T12:10:42;1.48;;;1.38;;
78167;SDS011;67410;42.698;23.378;2024-02-26T12:15:43;2.33;;;1.42;;
78167;SDS011;67410;42.698;23.378;2024-02-26T12:18:20;1.38;;;0.85;;
78167;SDS011;67410;42.698;23.378;2024-02-26T12:20:47;0.50;;;0.50;;
78167;SDS011;67410;42.698;23.378;2024-02-26T12:23:26;2.22;;;1.58;;
78167;SDS011;67410;42.698;23.378;2024-02-26T12:25:58;0.30;;;0.30;;
78167;SDS011;67410;42.698;23.378;2024-02-26T12:28:29;6.07;;;2.90;;
78167;SDS011;67410;42.698;23.378;2024-02-26T12:30:55;2.35;;;1.92;;
78167;SDS011;67410;42.698;23.378;2024-02-26T12:33:25;0.38;;;0.38;;
78167;SDS011;67410;42.698;23.378;2024-02-26T12:35:52;7.35;;;1.90;;
78167;SDS011;67410;42.698;23.378;2024-02-26T12:38:19;1.80;;;1.65;;
78167;SDS011;67410;42.698;23.378;2024-02-26T12:40:45;1.38;;;1.27;;
78167;SDS011;67410;42.698;23.378;2024-02-26T12:43:15;6.93;;;2.40;;
78167;SDS011;67410;42.698;23.378;2024-02-26T12:45:42;0.95;;;0.93;;
78167;SDS011;67410;42.698;23.378;2024-02-26T12:48:12;2.30;;;1.52;;
78167;SDS011;67410;42.698;23.378;2024-02-26T12:50:38;6.00;;;2.55;;
78167;SDS011;67410;42.698;23.378;2024-02-26T12:53:04;0.95;;;0.80;;
78167;SDS011;67410;42.698;23.378;2024-02-26T12:55:31;2.35;;;0.93;;
78167;SDS011;67410;42.698;23.378;2024-02-26T12:58:00;3.97;;;1.35;;
78167;SDS011;67410;42.698;23.378;2024-02-26T13:00:27;6.90;;;2.22;;
78167;SDS011;67410;42.698;23.378;2024-02-26T13:02:54;3.28;;;1.15;;
78167;SDS011;67410;42.698;23.378;2024-02-26T13:05:22;2.08;;;1.25;;
78167;SDS011;67410;42.698;23.378;2024-02-26T13:07:49;3.72;;;2.60;;
78167;SDS011;67410;42.698;23.378;2024-02-26T13:10:16;4.15;;;1.95;;
78167;SDS011;67410;42.698;23.378;2024-02-26T13:12:54;1.70;;;1.60;;
78167;SDS011;67410;42.698;23.378;2024-02-26T13:15:31;2.60;;;1.50;;
78167;SDS011;67410;42.698;23.378;2024-02-26T13:17:58;1.10;;;0.75;;
78167;SDS011;67410;42.698;23.378;2024-02-26T13:20:37;1.70;;;1.25;;
78167;SDS011;67410;42.698;23.378;2024-02-26T13:23:03;2.38;;;1.88;;
78167;SDS011;67410;42.698;23.378;2024-02-26T13:25:35;2.08;;;1.88;;
78167;SDS011;67410;42.698;23.378;2024-02-26T13:28:19;4.97;;;2.97;;
78167;SDS011;67410;42.698;23.378;2024-02-26T13:30:53;3.63;;;1.55;;
78167;SDS011;67410;42.698;23.378;2024-02-26T13:33:24;2.85;;;1.92;;
78167;SDS011;67410;42.698;23.378;2024-02-26T13:35:51;5.20;;;1.73;;
78167;SDS011;67410;42.698;23.378;2024-02-26T13:38:18;2.03;;;1.58;;
78167;SDS011;67410;42.698;23.378;2024-02-26T13:40:45;2.97;;;1.73;;
78167;SDS011;67410;42.698;23.378;2024-02-26T13:43:14;5.05;;;2.58;;
78167;SDS011;67410;42.698;23.378;2024-02-26T13:45:40;1.67;;;1.10;;
78167;SDS011;67410;42.698;23.378;2024-02-26T13:48:07;1.00;;;0.77;;
78167;SDS011;67410;42.698;23.378;2024-02-26T13:50:40;9.30;;;1.85;;
78167;SDS011;67410;42.698;23.378;2024-02-26T13:53:12;2.97;;;2.13;;
78167;SDS011;67410;42.698;23.378;2024-02-26T13:55:40;2.58;;;1.40;;
78167;SDS011;67410;42.698;23.378;2024-02-26T13:58:13;4.75;;;1.35;;
78167;SDS011;67410;42.698;23.378;2024-02-26T14:03:07;1.38;;;1.27;;
78167;SDS011;67410;42.698;23.378;2024-02-26T14:05:33;4.75;;;2.20;;
78167;SDS011;67410;42.698;23.378;2024-02-26T14:07:59;0.57;;;0.57;;
78167;SDS011;67410;42.698;23.378;2024-02-26T14:10:25;1.60;;;1.50;;
78167;SDS011;67410;42.698;23.378;2024-02-26T14:12:52;3.50;;;1.15;;
78167;SDS011;67410;42.698;23.378;2024-02-26T14:15:20;3.72;;;1.60;;
78167;SDS011;67410;42.698;23.378;2024-02-26T14:17:46;4.80;;;2.08;;
78167;SDS011;67410;42.698;23.378;2024-02-26T14:20:18;1.08;;;0.98;;
78167;SDS011;67410;42.698;23.378;2024-02-26T14:22:45;1.92;;;1.77;;
78167;SDS011;67410;42.698;23.378;2024-02-26T14:25:11;3.28;;;1.80;;
78167;SDS011;67410;42.698;23.378;2024-02-26T14:27:40;3.47;;;2.30;;
78167;SDS011;67410;42.698;23.378;2024-02-26T14:30:06;1.65;;;1.55;;
78167;SDS011;67410;42.698;23.378;2024-02-26T14:32:34;7.85;;;2.75;;
78167;SDS011;67410;42.698;23.378;2024-02-26T14:35:02;8.02;;;3.58;;
78167;SDS011;67410;42.698;23.378;2024-02-26T14:37:31;5.55;;;3.50;;
78167;SDS011;67410;42.698;23.378;2024-02-26T14:40:06;5.60;;;3.15;;
78167;SDS011;67410;42.698;23.378;2024-02-26T14:42:33;5.63;;;3.50;;
78167;SDS011;67410;42.698;23.378;2024-02-26T14:45:00;7.43;;;2.92;;